sensor_id;sensor_type;location;lat;lon;timestamp;pressure;altitude;pressure_sealevel;temperature;humidity
52105;BME280;38103;42.776;23.112;2023-04-04T00:00:28;92548.72;;;5.77;100.00
52105;BME280;38103;42.776;23.112;2023-04-04T00:02:54;92535.66;;;5.82;100.00
52105;BME280;38103;42.776;23.112;2023-04-04T00:05:19;92501.19;;;5.56;100.00
52105;BME280;38103;42.776;23.112;2023-04-04T00:07:45;92514.84;;;5.58;100.00
52105;BME280;38103;42.776;23.112;2023-04-04T00:10:11;92492.47;;;5.50;100.00
52105;BME280;38103;42.776;23.112;2023-04-04T00:12:37;92504.22;;;5.47;100.00
52105;BME280;38103;42.776;23.112;2023-04-04T00:15:02;92535.66;;;5.65;100.00
52105;BME280;38103;42.776;23.112;2023-04-04T00:17:28;92543.78;;;5.63;100.00
52105;BME280;38103;42.776;23.112;2023-04-04T00:19:53;92528.81;;;5.46;100.00
52105;BME280;38103;42.776;23.112;2023-04-04T00:22:18;92533.94;;;5.36;100.00
52105;BME280;38103;42.776;23.112;2023-04-04T00:24:44;92532.78;;;5.32;100.00
52105;BME280;38103;42.776;23.112;2023-04-04T00:27:09;92517.53;;;5.29;100.00
52105;BME280;38103;42.776;23.112;2023-04-04T00:29:34;92538.69;;;5.39;100.00
52105;BME280;38103;42.776;23.112;2023-04-04T00:32:01;92525.03;;;5.37;100.00
52105;BME280;38103;42.776;23.112;2023-04-04T00:34:27;92533.03;;;5.47;100.00
52105;BME280;38103;42.776;23.112;2023-04-04T00:36:53;92534.16;;;5.34;100.00
52105;BME280;38103;42.776;23.112;2023-04-04T00:39:18;92492.78;;;5.19;100.00
52105;BME280;38103;42.776;23.112;2023-04-04T00:41:44;92522.31;;;5.32;100.00
52105;BME280;38103;42.776;23.112;2023-04-04T00:44:12;92519.59;;;5.27;100.00
52105;BME280;38103;42.776;23.112;2023-04-04T00:46:37;92513.91;;;5.30;100.00
52105;BME280;38103;42.776;23.112;2023-04-04T00:49:03;92503.59;;;5.23;100.00
52105;BME280;38103;42.776;23.112;2023-04-04T00:51:28;92513.91;;;5.30;100.00
52105;BME280;38103;42.776;23.112;2023-04-04T00:53:53;92507.06;;;5.29;100.00
52105;BME280;38103;42.776;23.112;2023-04-04T00:56:19;92497.06;;;5.25;100.00
52105;BME280;38103;42.776;23.112;2023-04-04T00:58:45;92497.16;;;5.48;100.00
52105;BME280;38103;42.776;23.112;2023-04-04T01:01:11;92488.16;;;5.61;100.00
52105;BME280;38103;42.776;23.112;2023-04-04T01:03:36;92503.00;;;5.73;100.00
52105;BME280;38103;42.776;23.112;2023-04-04T01:06:04;92496.72;;;5.74;100.00
52105;BME280;38103;42.776;23.112;2023-04-04T01:08:30;92496.88;;;5.84;100.00
52105;BME280;38103;42.776;23.112;2023-04-04T01:10:57;92500.66;;;5.93;100.00
52105;BME280;38103;42.776;23.112;2023-04-04T01:13:23;92508.00;;;5.91;100.00
52105;BME280;38103;42.776;23.112;2023-04-04T01:15:48;92512.44;;;5.91;100.00
52105;BME280;38103;42.776;23.112;2023-04-04T01:18:16;92524.53;;;5.92;100.00
52105;BME280;38103;42.776;23.112;2023-04-04T01:20:53;92518.97;;;5.88;100.00
52105;BME280;38103;42.776;23.112;2023-04-04T01:23:23;92521.25;;;6.02;100.00
52105;BME280;38103;42.776;23.112;2023-04-04T01:25:48;92511.84;;;6.06;100.00
52105;BME280;38103;42.776;23.112;2023-04-04T01:28:14;92513.38;;;6.02;100.00
52105;BME280;38103;42.776;23.112;2023-04-04T01:30:41;92506.91;;;5.87;100.00
52105;BME280;38103;42.776;23.112;2023-04-04T01:33:12;92509.91;;;5.79;100.00
52105;BME280;38103;42.776;23.112;2023-04-04T01:38:45;92513.41;;;5.67;100.00
52105;BME280;38103;42.776;23.112;2023-04-04T01:41:16;92518.84;;;5.61;100.00
52105;BME280;38103;42.776;23.112;2023-04-04T01:43:44;92521.69;;;5.59;100.00
52105;BME280;38103;42.776;23.112;2023-04-04T01:46:10;92503.50;;;5.69;100.00
52105;BME280;38103;42.776;23.112;2023-04-04T01:48:36;92510.00;;;5.84;100.00
52105;BME280;38103;42.776;23.112;2023-04-04T01:51:02;92468.00;;;5.62;100.00
52105;BME280;38103;42.776;23.112;2023-04-04T01:53:27;92487.69;;;6.04;100.00
52105;BME280;38103;42.776;23.112;2023-04-04T01:55:53;92487.91;;;6.20;100.00
52105;BME280;38103;42.776;23.112;2023-04-04T01:58:19;92480.72;;;6.32;100.00
52105;BME280;38103;42.776;23.112;2023-04-04T02:00:44;92479.63;;;6.28;100.00
52105;BME280;38103;42.776;23.112;2023-04-04T02:03:10;92464.97;;;6.32;100.00
52105;BME280;38103;42.776;23.112;2023-04-04T02:05:35;92466.44;;;6.23;100.00
52105;BME280;38103;42.776;23.112;2023-04-04T02:08:01;92427.50;;;5.75;100.00
52105;BME280;38103;42.776;23.112;2023-04-04T02:10:27;92466.44;;;5.83;100.00
52105;BME280;38103;42.776;23.112;2023-04-04T02:12:54;92461.72;;;5.85;100.00
52105;BME280;38103;42.776;23.112;2023-04-04T02:15:19;92425.53;;;5.82;100.00
52105;BME280;38103;42.776;23.112;2023-04-04T02:17:46;92463.25;;;5.81;100.00
52105;BME280;38103;42.776;23.112;2023-04-04T02:20:12;92470.19;;;5.87;100.00
52105;BME280;38103;42.776;23.112;2023-04-04T02:22:37;92470.31;;;5.98;100.00
52105;BME280;38103;42.776;23.112;2023-04-04T02:25:03;92468.03;;;6.07;100.00
52105;BME280;38103;42.776;23.112;2023-04-04T02:27:29;92470.28;;;6.15;100.00
52105;BME280;38103;42.776;23.112;2023-04-04T02:29:54;92468.69;;;6.14;100.00
52105;BME280;38103;42.776;23.112;2023-04-04T02:32:20;92473.25;;;6.24;100.00
52105;BME280;38103;42.776;23.112;2023-04-04T02:34:45;92480.72;;;6.32;100.00
52105;BME280;38103;42.776;23.112;2023-04-04T02:37:11;92483.41;;;6.37;100.00
52105;BME280;38103;42.776;23.112;2023-04-04T02:39:37;92487.38;;;6.40;100.00
52105;BME280;38103;42.776;23.112;2023-04-04T02:42:02;92483.19;;;6.44;100.00
52105;BME280;38103;42.776;23.112;2023-04-04T02:44:28;92493.00;;;6.49;100.00
52105;BME280;38103;42.776;23.112;2023-04-04T02:46:53;92484.31;;;6.48;100.00
52105;BME280;38103;42.776;23.112;2023-04-04T02:49:18;92488.28;;;6.51;100.00
52105;BME280;38103;42.776;23.112;2023-04-04T02:51:44;92476.44;;;6.48;100.00
52105;BME280;38103;42.776;23.112;2023-04-04T02:54:09;92490.97;;;6.56;100.00
52105;BME280;38103;42.776;23.112;2023-04-04T02:56:36;92495.75;;;6.59;100.00
52105;BME280;38103;42.776;23.112;2023-04-04T02:59:02;92500.72;;;6.61;100.00
52105;BME280;38103;42.776;23.112;2023-04-04T03:01:28;92499.69;;;6.62;100.00
52105;BME280;38103;42.776;23.112;2023-04-04T03:03:54;92503.66;;;6.65;100.00
52105;BME280;38103;42.776;23.112;2023-04-04T03:06:19;92508.94;;;6.65;100.00
52105;BME280;38103;42.776;23.112;2023-04-04T03:08:44;92507.81;;;6.61;100.00
52105;BME280;38103;42.776;23.112;2023-04-04T03:11:10;92502.06;;;6.64;100.00
52105;BME280;38103;42.776;23.112;2023-04-04T03:13:35;92501.03;;;6.65;100.00
52105;BME280;38103;42.776;23.112;2023-04-04T03:16:02;92497.91;;;6.68;100.00
52105;BME280;38103;42.776;23.112;2023-04-04T03:18:28;92501.09;;;6.70;100.00
52105;BME280;38103;42.776;23.112;2023-04-04T03:20:54;92506.34;;;6.70;100.00
52105;BME280;38103;42.776;23.112;2023-04-04T03:23:19;92506.84;;;6.67;100.00
52105;BME280;38103;42.776;23.112;2023-04-04T03:25:45;92507.13;;;6.70;100.00
52105;BME280;38103;42.776;23.112;2023-04-04T03:28:11;92499.78;;;6.73;100.00
52105;BME280;38103;42.776;23.112;2023-04-04T03:30:37;92500.59;;;6.73;100.00
52105;BME280;38103;42.776;23.112;2023-04-04T03:33:04;92503.22;;;6.73;100.00
52105;BME280;38103;42.776;23.112;2023-04-04T03:35:32;92490.09;;;6.73;100.00
52105;BME280;38103;42.776;23.112;2023-04-04T03:38:00;92459.94;;;6.53;100.00
52105;BME280;38103;42.776;23.112;2023-04-04T03:40:26;92486.44;;;6.74;100.00
52105;BME280;38103;42.776;23.112;2023-04-04T03:42:51;92491.09;;;6.67;100.00
52105;BME280;38103;42.776;23.112;2023-04-04T03:45:16;92492.16;;;6.71;100.00
52105;BME280;38103;42.776;23.112;2023-04-04T03:47:43;92473.94;;;6.59;100.00
52105;BME280;38103;42.776;23.112;2023-04-04T03:50:08;92490.63;;;6.75;100.00
52105;BME280;38103;42.776;23.112;2023-04-04T03:52:37;92490.38;;;6.77;100.00
52105;BME280;38103;42.776;23.112;2023-04-04T03:55:06;92479.19;;;6.59;100.00
52105;BME280;38103;42.776;23.112;2023-04-04T03:57:34;92495.75;;;6.59;100.00
52105;BME280;38103;42.776;23.112;2023-04-04T04:00:01;92496.22;;;6.56;100.00
52105;BME280;38103;42.776;23.112;2023-04-04T04:02:27;92489.47;;;6.66;100.00
52105;BME280;38103;42.776;23.112;2023-04-04T04:04:52;92475.22;;;6.56;100.00
52105;BME280;38103;42.776;23.112;2023-04-04T04:07:17;92477.91;;;6.62;100.00
52105;BME280;38103;42.776;23.112;2023-04-04T04:09:43;92506.94;;;6.77;100.00
52105;BME280;38103;42.776;23.112;2023-04-04T04:12:08;92501.19;;;6.80;100.00
52105;BME280;38103;42.776;23.112;2023-04-04T04:14:33;92500.41;;;6.80;100.00
52105;BME280;38103;42.776;23.112;2023-04-04T04:16:59;92499.13;;;6.82;100.00
52105;BME280;38103;42.776;23.112;2023-04-04T04:19:24;92504.66;;;6.86;100.00
52105;BME280;38103;42.776;23.112;2023-04-04T04:21:49;92508.09;;;6.87;100.00
52105;BME280;38103;42.776;23.112;2023-04-04T04:24:15;92510.47;;;6.88;100.00
52105;BME280;38103;42.776;23.112;2023-04-04T04:26:40;92508.63;;;6.89;100.00
52105;BME280;38103;42.776;23.112;2023-04-04T04:29:06;92469.53;;;6.65;100.00
52105;BME280;38103;42.776;23.112;2023-04-04T04:31:32;92492.59;;;6.85;100.00
52105;BME280;38103;42.776;23.112;2023-04-04T04:33:57;92507.66;;;6.95;100.00
52105;BME280;38103;42.776;23.112;2023-04-04T04:36:23;92518.69;;;6.97;100.00
52105;BME280;38103;42.776;23.112;2023-04-04T04:38:48;92519.25;;;6.99;100.00
52105;BME280;38103;42.776;23.112;2023-04-04T04:41:13;92532.63;;;6.98;100.00
52105;BME280;38103;42.776;23.112;2023-04-04T04:43:39;92521.81;;;6.94;100.00
52105;BME280;38103;42.776;23.112;2023-04-04T04:46:05;92529.75;;;6.99;100.00
52105;BME280;38103;42.776;23.112;2023-04-04T04:48:33;92531.34;;;7.00;100.00
52105;BME280;38103;42.776;23.112;2023-04-04T04:50:58;92531.91;;;7.02;100.00
52105;BME280;38103;42.776;23.112;2023-04-04T04:53:23;92535.59;;;7.07;100.00
52105;BME280;38103;42.776;23.112;2023-04-04T04:55:49;92541.97;;;7.11;100.00
52105;BME280;38103;42.776;23.112;2023-04-04T04:58:16;92549.34;;;7.14;100.00
52105;BME280;38103;42.776;23.112;2023-04-04T05:00:45;92497.53;;;6.81;100.00
52105;BME280;38103;42.776;23.112;2023-04-04T05:03:10;92554.63;;;7.19;100.00
52105;BME280;38103;42.776;23.112;2023-04-04T05:05:36;92527.06;;;6.94;100.00
52105;BME280;38103;42.776;23.112;2023-04-04T05:08:02;92555.09;;;7.11;100.00
52105;BME280;38103;42.776;23.112;2023-04-04T05:10:28;92549.34;;;7.14;100.00
52105;BME280;38103;42.776;23.112;2023-04-04T05:12:54;92552.28;;;7.18;100.00
52105;BME280;38103;42.776;23.112;2023-04-04T05:15:20;92556.94;;;7.10;100.00
52105;BME280;38103;42.776;23.112;2023-04-04T05:17:46;92565.06;;;7.09;100.00
52105;BME280;38103;42.776;23.112;2023-04-04T05:20:12;92567.13;;;7.07;100.00
52105;BME280;38103;42.776;23.112;2023-04-04T05:22:43;92573.69;;;7.04;100.00
52105;BME280;38103;42.776;23.112;2023-04-04T05:25:10;92564.47;;;7.01;100.00
52105;BME280;38103;42.776;23.112;2023-04-04T05:27:36;92563.38;;;6.97;100.00
52105;BME280;38103;42.776;23.112;2023-04-04T05:30:01;92577.41;;;6.86;100.00
52105;BME280;38103;42.776;23.112;2023-04-04T05:32:27;92576.69;;;6.68;100.00
52105;BME280;38103;42.776;23.112;2023-04-04T05:34:52;92587.00;;;6.52;100.00
52105;BME280;38103;42.776;23.112;2023-04-04T05:37:17;92593.34;;;6.34;100.00
52105;BME280;38103;42.776;23.112;2023-04-04T05:39:43;92587.63;;;6.20;100.00
52105;BME280;38103;42.776;23.112;2023-04-04T05:42:08;92594.63;;;6.14;100.00
52105;BME280;38103;42.776;23.112;2023-04-04T05:44:33;92602.41;;;5.91;100.00
52105;BME280;38103;42.776;23.112;2023-04-04T05:46:59;92608.59;;;5.85;100.00
52105;BME280;38103;42.776;23.112;2023-04-04T05:49:25;92609.09;;;5.82;100.00
52105;BME280;38103;42.776;23.112;2023-04-04T05:51:50;92602.34;;;5.69;100.00
52105;BME280;38103;42.776;23.112;2023-04-04T05:54:16;92614.94;;;5.55;100.00
52105;BME280;38103;42.776;23.112;2023-04-04T05:56:41;92610.94;;;5.35;100.00
52105;BME280;38103;42.776;23.112;2023-04-04T05:59:07;92608.59;;;5.21;100.00
52105;BME280;38103;42.776;23.112;2023-04-04T06:01:32;92622.31;;;5.11;100.00
52105;BME280;38103;42.776;23.112;2023-04-04T06:03:58;92625.44;;;4.96;100.00
52105;BME280;38103;42.776;23.112;2023-04-04T06:06:25;92608.91;;;4.54;100.00
52105;BME280;38103;42.776;23.112;2023-04-04T06:08:50;92629.19;;;4.47;100.00
52105;BME280;38103;42.776;23.112;2023-04-04T06:11:16;92632.63;;;4.35;100.00
52105;BME280;38103;42.776;23.112;2023-04-04T06:13:41;92632.59;;;4.23;100.00
52105;BME280;38103;42.776;23.112;2023-04-04T06:16:06;92632.25;;;3.96;100.00
52105;BME280;38103;42.776;23.112;2023-04-04T06:18:32;92642.34;;;3.80;100.00
52105;BME280;38103;42.776;23.112;2023-04-04T06:20:57;92637.56;;;3.77;100.00
52105;BME280;38103;42.776;23.112;2023-04-04T06:23:22;92634.81;;;3.60;100.00
52105;BME280;38103;42.776;23.112;2023-04-04T06:25:48;92649.44;;;3.49;100.00
52105;BME280;38103;42.776;23.112;2023-04-04T06:28:13;92646.69;;;3.43;100.00
52105;BME280;38103;42.776;23.112;2023-04-04T06:30:42;92605.75;;;2.94;100.00
52105;BME280;38103;42.776;23.112;2023-04-04T06:33:07;92665.78;;;3.13;100.00
52105;BME280;38103;42.776;23.112;2023-04-04T06:35:32;92667.53;;;3.00;100.00
52105;BME280;38103;42.776;23.112;2023-04-04T06:37:58;92668.88;;;2.91;100.00
52105;BME280;38103;42.776;23.112;2023-04-04T06:40:23;92676.97;;;2.83;100.00
52105;BME280;38103;42.776;23.112;2023-04-04T06:42:49;92678.56;;;2.84;100.00
52105;BME280;38103;42.776;23.112;2023-04-04T06:45:16;92669.41;;;2.55;100.00
52105;BME280;38103;42.776;23.112;2023-04-04T06:47:42;92702.41;;;2.68;100.00
52105;BME280;38103;42.776;23.112;2023-04-04T06:50:08;92694.50;;;2.56;100.00
52105;BME280;38103;42.776;23.112;2023-04-04T06:52:33;92706.97;;;2.54;100.00
52105;BME280;38103;42.776;23.112;2023-04-04T06:54:59;92705.78;;;2.50;100.00
52105;BME280;38103;42.776;23.112;2023-04-04T06:57:25;92719.88;;;2.49;100.00
52105;BME280;38103;42.776;23.112;2023-04-04T06:59:51;92727.88;;;2.48;100.00
52105;BME280;38103;42.776;23.112;2023-04-04T07:02:16;92731.84;;;2.57;100.00
52105;BME280;38103;42.776;23.112;2023-04-04T07:04:41;92726.56;;;2.64;100.00
52105;BME280;38103;42.776;23.112;2023-04-04T07:07:07;92730.19;;;2.63;100.00
52105;BME280;38103;42.776;23.112;2023-04-04T07:09:32;92725.13;;;2.68;100.00
52105;BME280;38103;42.776;23.112;2023-04-04T07:11:57;92733.69;;;2.75;100.00
52105;BME280;38103;42.776;23.112;2023-04-04T07:14:23;92739.63;;;2.83;100.00
52105;BME280;38103;42.776;23.112;2023-04-04T07:16:50;92740.34;;;2.90;100.00
52105;BME280;38103;42.776;23.112;2023-04-04T07:19:15;92749.94;;;2.96;100.00
52105;BME280;38103;42.776;23.112;2023-04-04T07:21:41;92755.88;;;2.85;100.00
52105;BME280;38103;42.776;23.112;2023-04-04T07:24:07;92758.47;;;2.85;100.00
52105;BME280;38103;42.776;23.112;2023-04-04T07:26:33;92768.59;;;2.74;100.00
52105;BME280;38103;42.776;23.112;2023-04-04T07:28:59;92774.41;;;2.76;100.00
52105;BME280;38103;42.776;23.112;2023-04-04T07:31:24;92776.16;;;2.83;100.00
52105;BME280;38103;42.776;23.112;2023-04-04T07:33:50;92793.63;;;2.82;100.00
52105;BME280;38103;42.776;23.112;2023-04-04T07:36:19;92793.72;;;2.75;100.00
52105;BME280;38103;42.776;23.112;2023-04-04T07:38:44;92800.84;;;2.61;100.00
52105;BME280;38103;42.776;23.112;2023-04-04T07:41:10;92801.91;;;2.53;100.00
52105;BME280;38103;42.776;23.112;2023-04-04T07:43:36;92803.53;;;2.48;100.00
52105;BME280;38103;42.776;23.112;2023-04-04T07:46:02;92800.59;;;2.44;100.00
52105;BME280;38103;42.776;23.112;2023-04-04T07:48:27;92805.78;;;2.44;100.00
52105;BME280;38103;42.776;23.112;2023-04-04T07:50:53;92789.34;;;2.43;100.00
52105;BME280;38103;42.776;23.112;2023-04-04T07:53:18;92808.91;;;2.60;100.00
52105;BME280;38103;42.776;23.112;2023-04-04T07:55:43;92797.25;;;2.55;100.00
52105;BME280;38103;42.776;23.112;2023-04-04T07:58:09;92820.59;;;2.76;100.00
52105;BME280;38103;42.776;23.112;2023-04-04T08:00:34;92795.38;;;2.44;100.00
52105;BME280;38103;42.776;23.112;2023-04-04T08:03:00;92820.72;;;2.62;100.00
52105;BME280;38103;42.776;23.112;2023-04-04T08:05:26;92819.31;;;2.60;100.00
52105;BME280;38103;42.776;23.112;2023-04-04T08:07:52;92819.31;;;2.60;100.00
52105;BME280;38103;42.776;23.112;2023-04-04T08:10:17;92824.38;;;2.54;100.00
52105;BME280;38103;42.776;23.112;2023-04-04T08:12:43;92829.75;;;2.60;100.00
52105;BME280;38103;42.776;23.112;2023-04-04T08:15:11;92828.72;;;2.67;100.00
52105;BME280;38103;42.776;23.112;2023-04-04T08:17:37;92830.28;;;2.68;100.00
52105;BME280;38103;42.776;23.112;2023-04-04T08:20:03;92837.34;;;2.68;100.00
52105;BME280;38103;42.776;23.112;2023-04-04T08:22:29;92840.03;;;2.54;100.00
52105;BME280;38103;42.776;23.112;2023-04-04T08:24:54;92843.41;;;2.62;100.00
52105;BME280;38103;42.776;23.112;2023-04-04T08:27:20;92846.59;;;2.64;100.00
52105;BME280;38103;42.776;23.112;2023-04-04T08:29:45;92849.28;;;2.50;100.00
52105;BME280;38103;42.776;23.112;2023-04-04T08:32:12;92787.56;;;2.11;100.00
52105;BME280;38103;42.776;23.112;2023-04-04T08:34:39;92846.69;;;2.50;100.00
52105;BME280;38103;42.776;23.112;2023-04-04T08:37:05;92845.84;;;2.56;100.00
52105;BME280;38103;42.776;23.112;2023-04-04T08:39:31;92856.44;;;2.62;100.00
52105;BME280;38103;42.776;23.112;2023-04-04T08:42:01;92856.69;;;2.53;100.00
52105;BME280;38103;42.776;23.112;2023-04-04T08:44:27;92860.69;;;2.56;100.00
52105;BME280;38103;42.776;23.112;2023-04-04T08:46:54;92867.03;;;2.67;100.00
52105;BME280;38103;42.776;23.112;2023-04-04T08:49:22;92870.97;;;2.76;100.00
52105;BME280;38103;42.776;23.112;2023-04-04T08:51:48;92867.38;;;2.77;100.00
52105;BME280;38103;42.776;23.112;2023-04-04T08:54:14;92845.09;;;2.49;100.00
52105;BME280;38103;42.776;23.112;2023-04-04T08:56:41;92872.03;;;2.68;100.00
52105;BME280;38103;42.776;23.112;2023-04-04T08:59:06;92823.16;;;2.31;100.00
52105;BME280;38103;42.776;23.112;2023-04-04T09:01:32;92879.84;;;2.75;100.00
52105;BME280;38103;42.776;23.112;2023-04-04T09:03:57;92886.13;;;2.93;100.00
52105;BME280;38103;42.776;23.112;2023-04-04T09:06:24;92855.81;;;2.66;100.00
52105;BME280;38103;42.776;23.112;2023-04-04T09:08:51;92871.56;;;2.78;100.00
52105;BME280;38103;42.776;23.112;2023-04-04T09:11:19;92901.88;;;2.79;100.00
52105;BME280;38103;42.776;23.112;2023-04-04T09:13:45;92898.69;;;2.77;100.00
52105;BME280;38103;42.776;23.112;2023-04-04T09:16:13;92900.88;;;2.81;100.00
52105;BME280;38103;42.776;23.112;2023-04-04T09:18:38;92904.28;;;2.81;100.00
52105;BME280;38103;42.776;23.112;2023-04-04T09:21:11;92897.50;;;2.73;100.00
52105;BME280;38103;42.776;23.112;2023-04-04T09:23:37;92896.38;;;2.62;100.00
52105;BME280;38103;42.776;23.112;2023-04-04T09:26:03;92898.50;;;2.40;100.00
52105;BME280;38103;42.776;23.112;2023-04-04T09:28:29;92863.34;;;2.17;100.00
52105;BME280;38103;42.776;23.112;2023-04-04T09:30:55;92899.72;;;2.37;100.00
52105;BME280;38103;42.776;23.112;2023-04-04T09:33:22;92905.41;;;2.27;100.00
52105;BME280;38103;42.776;23.112;2023-04-04T09:35:54;92906.19;;;2.34;100.00
52105;BME280;38103;42.776;23.112;2023-04-04T09:38:26;92902.16;;;2.39;100.00
52105;BME280;38103;42.776;23.112;2023-04-04T09:40:53;92905.59;;;2.32;100.00
52105;BME280;38103;42.776;23.112;2023-04-04T09:43:21;92904.94;;;2.37;100.00
52105;BME280;38103;42.776;23.112;2023-04-04T09:45:47;92909.59;;;2.35;100.00
52105;BME280;38103;42.776;23.112;2023-04-04T09:48:24;92908.72;;;2.48;100.00
52105;BME280;38103;42.776;23.112;2023-04-04T09:50:50;92911.31;;;2.48;100.00
52105;BME280;38103;42.776;23.112;2023-04-04T09:53:16;92915.78;;;2.41;100.00
52105;BME280;38103;42.776;23.112;2023-04-04T09:55:52;92904.66;;;2.20;100.00
52105;BME280;38103;42.776;23.112;2023-04-04T09:58:19;92914.84;;;2.28;100.00
52105;BME280;38103;42.776;23.112;2023-04-04T10:00:48;92879.53;;;1.93;100.00
52105;BME280;38103;42.776;23.112;2023-04-04T10:03:16;92923.94;;;2.19;100.00
52105;BME280;38103;42.776;23.112;2023-04-04T10:05:43;92921.16;;;2.14;100.00
52105;BME280;38103;42.776;23.112;2023-04-04T10:08:16;92925.16;;;2.09;100.00
52105;BME280;38103;42.776;23.112;2023-04-04T10:10:56;92875.53;;;1.84;100.00
52105;BME280;38103;42.776;23.112;2023-04-04T10:13:29;92925.16;;;2.16;100.00
52105;BME280;38103;42.776;23.112;2023-04-04T10:15:56;92919.53;;;2.12;100.00
52105;BME280;38103;42.776;23.112;2023-04-04T10:18:28;92927.19;;;2.07;100.00
52105;BME280;38103;42.776;23.112;2023-04-04T10:20:55;92929.16;;;2.19;100.00
52105;BME280;38103;42.776;23.112;2023-04-04T10:23:22;92929.16;;;2.19;100.00
52105;BME280;38103;42.776;23.112;2023-04-04T10:25:50;92916.34;;;2.10;100.00
52105;BME280;38103;42.776;23.112;2023-04-04T10:28:17;92933.91;;;2.22;100.00
52105;BME280;38103;42.776;23.112;2023-04-04T10:30:50;92935.88;;;2.33;100.00
52105;BME280;38103;42.776;23.112;2023-04-04T10:33:37;92935.88;;;2.33;100.00
52105;BME280;38103;42.776;23.112;2023-04-04T10:36:06;92945.16;;;2.29;100.00
52105;BME280;38103;42.776;23.112;2023-04-04T10:38:41;92935.94;;;2.20;100.00
52105;BME280;38103;42.776;23.112;2023-04-04T10:41:07;92944.00;;;2.11;100.00
52105;BME280;38103;42.776;23.112;2023-04-04T10:43:39;92935.75;;;2.15;100.00
52105;BME280;38103;42.776;23.112;2023-04-04T10:46:08;92955.63;;;2.16;100.00
52105;BME280;38103;42.776;23.112;2023-04-04T10:48:36;92952.44;;;2.14;100.00
52105;BME280;38103;42.776;23.112;2023-04-04T10:51:03;92950.81;;;2.12;100.00
52105;BME280;38103;42.776;23.112;2023-04-04T10:53:29;92957.66;;;2.14;100.00
52105;BME280;38103;42.776;23.112;2023-04-04T10:55:56;92906.47;;;1.66;100.00
52105;BME280;38103;42.776;23.112;2023-04-04T10:58:23;92956.84;;;2.06;100.00
52105;BME280;38103;42.776;23.112;2023-04-04T11:00:49;92950.00;;;2.12;100.00
52105;BME280;38103;42.776;23.112;2023-04-04T11:03:16;92954.38;;;2.32;100.00
52105;BME280;38103;42.776;23.112;2023-04-04T11:05:42;92957.16;;;2.30;100.00
52105;BME280;38103;42.776;23.112;2023-04-04T11:08:15;92968.06;;;2.14;100.00
52105;BME280;38103;42.776;23.112;2023-04-04T11:10:43;92969.25;;;2.18;100.00
52105;BME280;38103;42.776;23.112;2023-04-04T11:13:14;92983.94;;;2.05;100.00
52105;BME280;38103;42.776;23.112;2023-04-04T11:20:56;92961.75;;;1.82;100.00
52105;BME280;38103;42.776;23.112;2023-04-04T11:23:22;92990.16;;;2.04;100.00
52105;BME280;38103;42.776;23.112;2023-04-04T11:25:54;93004.59;;;2.07;100.00
52105;BME280;38103;42.776;23.112;2023-04-04T11:28:27;92998.56;;;2.06;100.00
52105;BME280;38103;42.776;23.112;2023-04-04T11:39:20;92996.81;;;1.93;100.00
52105;BME280;38103;42.776;23.112;2023-04-04T11:42:11;92977.78;;;1.79;100.00
52105;BME280;38103;42.776;23.112;2023-04-04T11:45:00;93000.63;;;1.91;100.00
52105;BME280;38103;42.776;23.112;2023-04-04T11:47:29;93002.22;;;1.92;100.00
52105;BME280;38103;42.776;23.112;2023-04-04T11:49:56;93010.66;;;1.87;100.00
52105;BME280;38103;42.776;23.112;2023-04-04T11:52:21;93007.84;;;1.88;100.00
52105;BME280;38103;42.776;23.112;2023-04-04T11:54:50;93013.47;;;1.92;100.00
52105;BME280;38103;42.776;23.112;2023-04-04T11:57:17;93018.31;;;1.75;100.00
52105;BME280;38103;42.776;23.112;2023-04-04T11:59:45;93010.09;;;1.71;100.00
52105;BME280;38103;42.776;23.112;2023-04-04T12:02:13;93003.06;;;1.72;100.00
52105;BME280;38103;42.776;23.112;2023-04-04T12:04:40;93009.69;;;1.67;100.00
52105;BME280;38103;42.776;23.112;2023-04-04T12:07:08;93015.50;;;1.56;100.00
52105;BME280;38103;42.776;23.112;2023-04-04T12:09:34;93009.13;;;1.52;100.00
52105;BME280;38103;42.776;23.112;2023-04-04T12:12:00;93017.72;;;1.45;100.00
52105;BME280;38103;42.776;23.112;2023-04-04T12:14:25;93016.72;;;1.33;100.00
52105;BME280;38103;42.776;23.112;2023-04-04T12:16:53;93014.31;;;1.38;100.00
52105;BME280;38103;42.776;23.112;2023-04-04T12:19:19;92970.66;;;1.13;100.00
52105;BME280;38103;42.776;23.112;2023-04-04T12:21:47;93013.31;;;1.39;100.00
52105;BME280;38103;42.776;23.112;2023-04-04T12:24:13;92997.50;;;1.20;100.00
52105;BME280;38103;42.776;23.112;2023-04-04T12:26:41;93020.75;;;1.29;100.00
52105;BME280;38103;42.776;23.112;2023-04-04T12:29:11;93016.13;;;1.38;100.00
52105;BME280;38103;42.776;23.112;2023-04-04T12:31:37;93013.94;;;1.41;100.00
52105;BME280;38103;42.776;23.112;2023-04-04T12:34:04;93016.31;;;1.50;100.00
52105;BME280;38103;42.776;23.112;2023-04-04T12:36:31;93011.91;;;1.43;100.00
52105;BME280;38103;42.776;23.112;2023-04-04T12:39:01;93012.31;;;1.40;100.00
52105;BME280;38103;42.776;23.112;2023-04-04T12:41:28;93002.50;;;1.29;100.00
52105;BME280;38103;42.776;23.112;2023-04-04T12:44:04;93011.53;;;1.26;100.00
52105;BME280;38103;42.776;23.112;2023-04-04T12:46:40;93016.13;;;1.17;100.00
52105;BME280;38103;42.776;23.112;2023-04-04T12:49:06;93021.72;;;1.34;100.00
52105;BME280;38103;42.776;23.112;2023-04-04T12:51:35;93003.09;;;1.24;100.00
52105;BME280;38103;42.776;23.112;2023-04-04T12:54:03;93011.50;;;1.33;100.00
52105;BME280;38103;42.776;23.112;2023-04-04T12:56:30;93010.72;;;1.26;100.00
52105;BME280;38103;42.776;23.112;2023-04-04T12:59:02;93016.72;;;1.26;100.00
52105;BME280;38103;42.776;23.112;2023-04-04T13:01:32;93021.13;;;1.26;100.00
52105;BME280;38103;42.776;23.112;2023-04-04T13:04:01;93031.94;;;1.29;100.00